Time;durP1;ratioP1;P1;durP2;ratioP2;P2;SDS_P1;SDS_P2;PMS_P1;PMS_P2;Temp;Humidity;BMP_temperature;BMP_pressure;BME280_temperature;BME280_humidity;BME280_pressure;Samples;Min_cycle;Max_cycle;Signal;HPM_P1;HPM_P2
2022/04/30 00:00:11;;;;;;;5.75;2.60;;;20.80;35.40;;;;;;5141579;27;20472;-39
2022/04/30 00:02:39;;;;;;;3.53;2.60;;;20.80;35.30;;;;;;5161519;27;20022;-41
2022/04/30 00:05:05;;;;;;;4.05;2.70;;;20.80;35.40;;;;;;5162770;27;20019;-40
2022/04/30 00:07:31;;;;;;;3.13;2.60;;;20.80;35.30;;;;;;5163040;27;20080;-39
2022/04/30 00:09:58;;;;;;;3.35;2.40;;;20.80;35.30;;;;;;5163024;27;20075;-40
2022/04/30 00:12:25;;;;;;;3.65;2.78;;;20.80;35.30;;;;;;5163866;27;20053;-40
2022/04/30 00:14:50;;;;;;;3.38;2.50;;;20.80;35.30;;;;;;5165112;27;20015;-40
2022/04/30 00:17:17;;;;;;;2.80;2.45;;;20.80;35.30;;;;;;5166911;27;20026;-39
2022/04/30 00:19:43;;;;;;;4.57;2.80;;;20.80;35.30;;;;;;5166284;27;20026;-39
2022/04/30 00:22:09;;;;;;;4.32;2.88;;;20.80;35.20;;;;;;5165821;27;20074;-42
2022/04/30 00:24:35;;;;;;;3.63;2.53;;;20.80;35.20;;;;;;5166887;27;20019;-40
2022/04/30 00:27:01;;;;;;;3.05;2.33;;;20.80;35.20;;;;;;5166748;27;20023;-42
2022/04/30 00:29:29;;;;;;;3.58;2.53;;;20.80;35.20;;;;;;5165876;27;20066;-40
2022/04/30 00:31:55;;;;;;;3.17;2.67;;;20.80;35.30;;;;;;5165750;27;20003;-39
2022/04/30 00:34:21;;;;;;;3.90;2.58;;;20.80;35.30;;;;;;5164925;27;20015;-40
2022/04/30 00:36:47;;;;;;;3.42;2.50;;;20.80;35.20;;;;;;5147187;27;20056;-39
2022/04/30 00:39:14;;;;;;;3.78;2.60;;;20.80;35.20;;;;;;5164471;27;20006;-40
2022/04/30 00:41:42;;;;;;;3.78;2.97;;;20.70;35.20;;;;;;5163753;27;20030;-40
2022/04/30 00:44:08;;;;;;;3.00;2.60;;;20.80;35.40;;;;;;5165192;27;20031;-48
2022/04/30 00:46:34;;;;;;;4.28;2.83;;;20.80;35.30;;;;;;5165293;27;20019;-40
2022/04/30 00:49:04;;;;;;;3.53;2.65;;;20.70;35.20;;;;;;5164257;27;20027;-39
2022/04/30 00:51:29;;;;;;;3.03;2.65;;;20.70;35.20;;;;;;5163021;27;20010;-40
2022/04/30 00:53:56;;;;;;;4.45;2.60;;;20.80;35.80;;;;;;5163097;27;20007;-39
2022/04/30 00:56:28;;;;;;;3.10;2.53;;;20.70;35.20;;;;;;5162907;27;20042;-39
2022/04/30 00:58:55;;;;;;;2.95;2.50;;;20.80;35.20;;;;;;5162940;27;20018;-39
2022/04/30 01:01:21;;;;;;;3.53;2.70;;;20.80;35.20;;;;;;5163173;27;20007;-40
2022/04/30 01:03:47;;;;;;;3.97;2.60;;;20.70;35.20;;;;;;5127219;27;20565;-40
2022/04/30 01:06:13;;;;;;;3.35;2.50;;;20.70;35.20;;;;;;5144116;27;20047;-40
2022/04/30 01:08:39;;;;;;;3.65;2.60;;;20.70;35.20;;;;;;5144990;27;20034;-40
2022/04/30 01:11:08;;;;;;;3.65;2.50;;;20.70;35.20;;;;;;5144977;27;20015;-38
2022/04/30 01:13:35;;;;;;;3.50;2.45;;;20.70;35.10;;;;;;5162788;27;20214;-39
2022/04/30 01:16:04;;;;;;;3.97;2.60;;;20.70;35.10;;;;;;5163475;27;20107;-43
2022/04/30 01:18:32;;;;;;;4.22;2.67;;;20.70;35.20;;;;;;5162598;27;20014;-40
2022/04/30 01:21:03;;;;;;;4.15;2.90;;;20.70;35.10;;;;;;5142706;27;20046;-41
2022/04/30 01:23:42;;;;;;;;;;;;;;;;;;;;;
2022/04/30 01:26:09;;;;;;;4.00;2.60;;;20.70;35.20;;;;;;5126651;27;20442;-41
2022/04/30 01:28:34;;;;;;;3.63;2.83;;;20.60;35.20;;;;;;5144314;27;20026;-42
2022/04/30 01:31:00;;;;;;;2.70;2.50;;;20.70;35.10;;;;;;5128120;27;20010;-39
2022/04/30 01:39:10;;;;;;;4.45;2.42;;;20.70;35.10;;;;;;5163548;27;20106;-39
2022/04/30 01:41:36;;;;;;;3.85;2.60;;;20.70;35.10;;;;;;5161629;27;20014;-39
2022/04/30 01:44:05;;;;;;;3.80;2.60;;;20.70;35.10;;;;;;5163010;27;20039;-40
2022/04/30 01:46:32;;;;;;;3.90;2.70;;;20.60;35.00;;;;;;5162019;27;20140;-40
2022/04/30 01:49:00;;;;;;;3.00;2.40;;;20.60;35.10;;;;;;5163664;27;20080;-40
2022/04/30 01:51:26;;;;;;;5.15;2.40;;;20.60;35.10;;;;;;5164712;27;20007;-40
2022/04/30 01:53:56;;;;;;;3.30;2.60;;;20.60;35.00;;;;;;5164026;27;20011;-40
2022/04/30 01:56:22;;;;;;;2.92;2.60;;;20.60;35.00;;;;;;5146959;27;20003;-39
2022/04/30 01:58:50;;;;;;;4.22;2.60;;;20.60;34.90;;;;;;5146051;27;20037;-40
2022/04/30 02:01:15;;;;;;;2.63;2.35;;;20.60;34.90;;;;;;5144137;27;20019;-39
2022/04/30 02:03:42;;;;;;;5.60;2.80;;;20.60;34.90;;;;;;5162378;27;20023;-40
2022/04/30 02:06:07;;;;;;;3.95;2.60;;;20.60;34.90;;;;;;5162670;27;20023;-42
2022/04/30 02:08:33;;;;;;;2.83;2.40;;;20.60;35.00;;;;;;5163271;27;20023;-42
2022/04/30 02:10:59;;;;;;;2.90;2.35;;;20.60;35.00;;;;;;5163104;27;20015;-39
2022/04/30 02:13:25;;;;;;;4.57;2.65;;;20.50;35.00;;;;;;5145060;27;20023;-41
2022/04/30 02:15:52;;;;;;;2.88;2.40;;;20.60;35.00;;;;;;5163065;27;20019;-41
2022/04/30 02:18:17;;;;;;;3.08;2.33;;;20.50;34.90;;;;;;5162852;27;20052;-40
2022/04/30 02:20:45;;;;;;;4.82;3.05;;;20.50;34.90;;;;;;5123008;27;20067;-41
2022/04/30 02:23:11;;;;;;;3.03;2.42;;;20.50;34.90;;;;;;5143156;27;20092;-41
2022/04/30 02:25:37;;;;;;;5.07;2.45;;;20.50;34.90;;;;;;5141545;27;20016;-40
2022/04/30 02:28:08;;;;;;;2.95;2.42;;;20.60;34.90;;;;;;5142202;27;20043;-40
2022/04/30 02:30:36;;;;;;;3.20;2.20;;;20.50;34.80;;;;;;5140880;27;20019;-40
2022/04/30 02:33:11;;;;;;;4.03;2.50;;;20.60;34.80;;;;;;5140605;27;20130;-40
2022/04/30 02:35:41;;;;;;;3.08;2.30;;;20.50;34.80;;;;;;5140499;27;20491;-41
2022/04/30 02:38:08;;;;;;;2.50;2.30;;;20.50;34.80;;;;;;5140694;27;20018;-40
2022/04/30 02:40:34;;;;;;;4.18;2.45;;;20.50;34.80;;;;;;5140599;27;20015;-41
2022/04/30 02:43:26;;;;;;;2.83;2.22;;;20.50;34.80;;;;;;5141250;27;20015;-39
2022/04/30 02:45:52;;;;;;;4.00;2.30;;;20.50;34.80;;;;;;5141339;27;20035;-39
2022/04/30 02:48:18;;;;;;;4.45;2.40;;;20.50;34.80;;;;;;5142135;27;20047;-39
2022/04/30 02:50:44;;;;;;;3.65;2.58;;;20.50;34.80;;;;;;5142973;27;20015;-40
2022/04/30 02:53:11;;;;;;;4.35;2.55;;;20.50;34.80;;;;;;5142161;27;20015;-42
2022/04/30 02:55:36;;;;;;;3.10;2.03;;;20.50;34.80;;;;;;5142763;27;20015;-41
2022/04/30 03:01:05;;;;;;;3.05;2.28;;;20.50;34.80;;;;;;5087067;28;20032;-42
2022/04/30 03:03:32;;;;;;;3.75;2.42;;;20.50;34.80;;;;;;5079801;28;20115;-41
2022/04/30 03:05:58;;;;;;;4.55;2.30;;;20.50;34.70;;;;;;5097848;28;20054;-43
2022/04/30 03:08:26;;;;;;;5.13;2.42;;;20.50;34.80;;;;;;5097047;28;20109;-43
2022/04/30 03:10:56;;;;;;;3.95;2.28;;;20.50;34.80;;;;;;5097886;28;20025;-41
2022/04/30 03:13:22;;;;;;;2.80;2.30;;;20.50;34.80;;;;;;5097083;28;20023;-40
2022/04/30 03:15:49;;;;;;;3.50;2.22;;;20.50;34.80;;;;;;5097070;28;20032;-39
2022/04/30 03:23:54;;;;;;;3.08;2.10;;;20.40;34.70;;;;;;5099042;28;20040;-42
2022/04/30 03:26:20;;;;;;;2.92;2.22;;;20.40;34.70;;;;;;5098835;28;20030;-41
2022/04/30 03:28:51;;;;;;;3.10;2.22;;;20.50;34.80;;;;;;5099045;28;20058;-42
2022/04/30 03:31:19;;;;;;;2.72;2.17;;;20.40;34.80;;;;;;5097824;28;20081;-40
2022/04/30 03:33:47;;;;;;;2.15;1.95;;;20.40;34.80;;;;;;5099167;28;20095;-41
2022/04/30 03:36:15;;;;;;;3.75;2.10;;;20.40;34.80;;;;;;5141025;27;20064;-40
2022/04/30 03:38:41;;;;;;;3.72;2.20;;;20.40;34.80;;;;;;5141507;27;20101;-43
2022/04/30 03:41:07;;;;;;;2.80;2.15;;;20.40;34.80;;;;;;5142275;27;20030;-41
2022/04/30 03:43:33;;;;;;;3.30;2.20;;;20.40;34.80;;;;;;5142883;28;20019;-40
2022/04/30 03:46:00;;;;;;;2.67;2.05;;;20.40;34.90;;;;;;5141545;28;20019;-40
2022/04/30 03:48:25;;;;;;;3.50;1.95;;;20.40;34.90;;;;;;5141262;28;20026;-39
2022/04/30 03:50:52;;;;;;;2.28;2.08;;;20.40;34.90;;;;;;5140148;28;20015;-40
2022/04/30 03:53:20;;;;;;;2.78;1.95;;;20.40;34.90;;;;;;5141244;28;20015;-40
2022/04/30 03:55:52;;;;;;;2.88;1.80;;;20.30;34.90;;;;;;5139242;28;20027;-40
2022/04/30 03:58:22;;;;;;;3.40;1.88;;;20.30;34.80;;;;;;5123132;28;20106;-41
2022/04/30 04:00:48;;;;;;;4.15;1.92;;;20.40;35.00;;;;;;5140862;28;20094;-41
2022/04/30 04:03:14;;;;;;;2.67;1.90;;;20.30;34.80;;;;;;5141294;27;20015;-39
2022/04/30 04:05:40;;;;;;;3.53;2.05;;;20.40;34.90;;;;;;5142102;28;20022;-41
2022/04/30 04:08:12;;;;;;;2.65;1.73;;;20.30;34.90;;;;;;5142354;28;20080;-40
2022/04/30 04:10:38;;;;;;;2.78;2.20;;;20.40;35.00;;;;;;5140279;27;20011;-39
2022/04/30 04:18:55;;;;;;;2.85;1.95;;;20.30;34.90;;;;;;5095807;28;20105;-40
2022/04/30 04:21:24;;;;;;;2.88;2.00;;;20.30;34.90;;;;;;5096901;28;20046;-39
2022/04/30 04:26:35;;;;;;;2.83;1.80;;;20.40;34.90;;;;;;5082418;28;20409;-40
2022/04/30 04:29:01;;;;;;;3.13;1.98;;;20.30;34.80;;;;;;5078737;28;20115;-39
2022/04/30 04:31:27;;;;;;;3.40;2.10;;;20.30;34.90;;;;;;5095932;28;20020;-41
2022/04/30 04:33:54;;;;;;;2.63;1.80;;;20.30;34.90;;;;;;5095958;28;20020;-40
2022/04/30 04:36:19;;;;;;;2.20;1.90;;;20.30;34.90;;;;;;5096183;28;20020;-39
2022/04/30 04:38:46;;;;;;;2.40;1.92;;;20.30;34.90;;;;;;5096734;28;20016;-40
2022/04/30 04:41:12;;;;;;;2.20;1.95;;;20.30;34.90;;;;;;5096428;28;20050;-44
2022/04/30 04:43:45;;;;;;;4.05;1.98;;;20.40;34.90;;;;;;5096407;28;20036;-39
2022/04/30 04:46:11;;;;;;;3.30;2.10;;;20.40;34.90;;;;;;5089822;28;20031;-40
2022/04/30 04:48:37;;;;;;;2.53;2.00;;;20.40;34.90;;;;;;5142097;27;20503;-40
2022/04/30 04:51:03;;;;;;;2.55;1.90;;;20.40;34.90;;;;;;5143532;27;20091;-40
2022/04/30 04:53:29;;;;;;;2.95;2.00;;;20.30;34.70;;;;;;5143456;27;20007;-41
2022/04/30 04:55:56;;;;;;;3.45;2.20;;;20.40;34.80;;;;;;5144578;27;20030;-40
2022/04/30 04:58:22;;;;;;;2.17;1.70;;;20.40;34.80;;;;;;5143328;27;20067;-43
2022/04/30 05:00:48;;;;;;;2.75;2.00;;;20.40;34.80;;;;;;5142118;27;20071;-39
2022/04/30 05:03:15;;;;;;;3.45;2.10;;;20.50;34.70;;;;;;5143176;27;20011;-40
2022/04/30 05:05:41;;;;;;;2.42;1.90;;;20.50;34.50;;;;;;5142309;27;20079;-39
2022/04/30 05:08:08;;;;;;;3.53;2.20;;;20.60;34.50;;;;;;5143727;27;20016;-41
2022/04/30 05:10:36;;;;;;;2.15;1.75;;;20.60;34.40;;;;;;5144059;27;20029;-43
2022/04/30 05:13:02;;;;;;;2.10;1.90;;;20.60;34.30;;;;;;5145237;27;20481;-40
2022/04/30 05:15:29;;;;;;;3.03;2.10;;;20.70;34.20;;;;;;5144055;27;20016;-40
2022/04/30 05:17:55;;;;;;;2.88;1.90;;;20.70;34.20;;;;;;5147049;27;20019;-43
2022/04/30 05:20:22;;;;;;;3.28;2.00;;;20.70;34.00;;;;;;5128291;27;20039;-41
2022/04/30 05:22:48;;;;;;;3.65;2.00;;;20.80;34.10;;;;;;5145790;27;20039;-42
2022/04/30 05:25:16;;;;;;;2.20;1.88;;;20.80;34.00;;;;;;5145371;27;20019;-41
2022/04/30 05:27:42;;;;;;;2.65;1.85;;;20.80;33.80;;;;;;5144273;27;20051;-41
2022/04/30 05:30:09;;;;;;;2.20;1.75;;;20.90;33.80;;;;;;5144643;27;20099;-45
2022/04/30 05:32:35;;;;;;;3.20;1.92;;;21.00;33.60;;;;;;5145275;27;20015;-42
2022/04/30 05:35:01;;;;;;;2.75;2.08;;;21.10;33.60;;;;;;5145703;27;20012;-42
2022/04/30 05:37:27;;;;;;;3.47;1.95;;;21.10;33.40;;;;;;5143962;27;20041;-40
2022/04/30 05:39:53;;;;;;;3.10;2.00;;;21.30;33.20;;;;;;5142833;27;20075;-40
2022/04/30 05:42:20;;;;;;;3.97;2.00;;;21.40;33.10;;;;;;5145375;27;20059;-39
2022/04/30 05:44:45;;;;;;;3.97;1.90;;;21.50;33.00;;;;;;5143714;27;20433;-40
2022/04/30 05:47:11;;;;;;;3.75;1.90;;;21.60;32.70;;;;;;5143721;27;20393;-41
2022/04/30 05:49:37;;;;;;;3.35;1.80;;;21.80;32.40;;;;;;5142539;27;20023;-41
2022/04/30 05:52:04;;;;;;;3.00;1.90;;;21.90;32.30;;;;;;5142230;27;20068;-41
2022/04/30 05:54:30;;;;;;;3.25;2.08;;;22.00;32.20;;;;;;5140597;27;20015;-40
2022/04/30 05:56:56;;;;;;;2.85;1.90;;;22.10;32.00;;;;;;5142288;27;20023;-40
2022/04/30 05:59:23;;;;;;;3.03;2.15;;;22.20;31.80;;;;;;5143529;27;20064;-42
2022/04/30 06:01:49;;;;;;;2.75;1.80;;;22.20;31.70;;;;;;5143384;27;20065;-39
2022/04/30 06:04:15;;;;;;;2.42;1.92;;;22.40;31.60;;;;;;5142675;27;20376;-38
2022/04/30 06:06:41;;;;;;;4.13;1.80;;;22.40;31.50;;;;;;5126563;27;20100;-38
2022/04/30 06:09:08;;;;;;;3.67;2.05;;;22.40;31.50;;;;;;5144251;27;20073;-42
2022/04/30 06:11:35;;;;;;;3.00;2.00;;;22.40;31.60;;;;;;5143742;27;20066;-38
2022/04/30 06:14:01;;;;;;;2.30;1.85;;;22.30;31.60;;;;;;5144329;27;20066;-39
2022/04/30 06:16:28;;;;;;;2.45;1.83;;;22.20;31.70;;;;;;5144406;27;20024;-40
2022/04/30 06:18:55;;;;;;;2.10;1.85;;;22.20;31.80;;;;;;5143542;27;20016;-38
2022/04/30 06:21:22;;;;;;;2.40;2.10;;;22.10;32.00;;;;;;5140867;27;20041;-39
2022/04/30 06:23:47;;;;;;;2.10;1.88;;;22.10;32.10;;;;;;5139576;27;20561;-37
2022/04/30 06:26:14;;;;;;;2.67;1.90;;;22.00;32.10;;;;;;5141103;27;20031;-38
2022/04/30 06:28:39;;;;;;;2.25;2.05;;;22.00;32.20;;;;;;5140841;27;20158;-39
2022/04/30 06:31:06;;;;;;;2.22;1.90;;;22.00;32.30;;;;;;5142682;27;20020;-39
2022/04/30 06:33:32;;;;;;;3.08;2.10;;;21.90;32.30;;;;;;5142500;27;20082;-39
2022/04/30 06:35:58;;;;;;;2.67;2.15;;;21.90;32.40;;;;;;5141183;27;20042;-40
2022/04/30 06:38:25;;;;;;;3.53;2.28;;;21.90;32.40;;;;;;5141149;27;20030;-40
2022/04/30 06:40:52;;;;;;;2.38;1.90;;;21.90;32.40;;;;;;5141807;27;20035;-38
2022/04/30 06:43:18;;;;;;;3.63;2.45;;;21.90;32.60;;;;;;5142154;27;20019;-38
2022/04/30 06:45:43;;;;;;;2.80;2.30;;;21.80;32.60;;;;;;5140903;27;20493;-39
2022/04/30 06:48:10;;;;;;;2.30;2.05;;;21.90;32.60;;;;;;5141040;27;20031;-39
2022/04/30 06:50:36;;;;;;;3.97;2.33;;;21.80;32.60;;;;;;5139388;27;20045;-40
2022/04/30 06:58:41;;;;;;;3.80;2.35;;;21.90;32.60;;;;;;5139977;27;20080;-40
2022/04/30 07:01:30;;;;;;;2.20;1.98;;;21.90;32.70;;;;;;5139129;27;20045;-39
2022/04/30 07:04:02;;;;;;;3.08;2.20;;;21.80;32.80;;;;;;5138491;27;20012;-38
2022/04/30 07:06:31;;;;;;;3.33;2.53;;;21.80;32.80;;;;;;5140154;27;20019;-38
2022/04/30 07:08:57;;;;;;;3.30;2.20;;;21.80;32.80;;;;;;5140926;27;20038;-39
2022/04/30 07:11:23;;;;;;;2.65;2.35;;;21.80;32.80;;;;;;5139185;27;20008;-38
2022/04/30 07:13:49;;;;;;;3.88;2.17;;;21.80;32.80;;;;;;5138775;27;20481;-39
2022/04/30 07:16:16;;;;;;;2.50;2.00;;;21.90;32.80;;;;;;5138670;27;20026;-40
2022/04/30 07:18:43;;;;;;;5.50;2.40;;;22.00;32.60;;;;;;5139844;27;20019;-39
2022/04/30 07:21:10;;;;;;;2.53;2.03;;;22.00;32.70;;;;;;5139319;27;20043;-39
2022/04/30 07:23:36;;;;;;;3.00;2.05;;;22.10;32.50;;;;;;5137883;27;20102;-40
2022/04/30 07:26:02;;;;;;;2.50;2.00;;;22.30;32.40;;;;;;5137597;27;20031;-39
2022/04/30 07:28:35;;;;;;;2.85;2.30;;;22.40;32.60;;;;;;5138161;27;20046;-39
2022/04/30 07:31:04;;;;;;;3.95;1.98;;;22.60;31.90;;;;;;5138281;27;20016;-39
2022/04/30 07:33:30;;;;;;;3.58;2.00;;;22.80;31.60;;;;;;5138735;27;20046;-38
2022/04/30 07:35:56;;;;;;;2.30;2.10;;;22.80;31.40;;;;;;5138287;27;20007;-39
2022/04/30 07:38:23;;;;;;;3.85;2.22;;;22.90;31.40;;;;;;5139057;27;20461;-39
2022/04/30 07:40:49;;;;;;;2.85;2.10;;;22.80;31.50;;;;;;5138587;27;20063;-40
2022/04/30 07:43:15;;;;;;;3.17;2.10;;;22.80;31.40;;;;;;5136568;27;20023;-40
2022/04/30 07:45:40;;;;;;;3.10;2.30;;;22.90;31.60;;;;;;5139126;28;20060;-40
2022/04/30 07:48:07;;;;;;;2.88;2.22;;;22.80;31.50;;;;;;5138197;28;20028;-38
2022/04/30 07:50:37;;;;;;;3.90;2.20;;;22.80;31.60;;;;;;5138752;28;20019;-39
2022/04/30 07:53:03;;;;;;;2.65;2.20;;;22.80;31.70;;;;;;5136903;28;20020;-39
2022/04/30 07:55:30;;;;;;;3.45;2.10;;;22.60;31.70;;;;;;5137210;28;20016;-39
2022/04/30 07:57:57;;;;;;;2.38;1.90;;;22.60;31.90;;;;;;5137948;28;20358;-39
2022/04/30 08:00:23;;;;;;;2.90;2.10;;;22.60;31.90;;;;;;5136788;28;20389;-39
2022/04/30 08:02:49;;;;;;;3.53;2.10;;;22.60;32.00;;;;;;5138601;27;20121;-43
2022/04/30 08:05:16;;;;;;;3.85;2.20;;;22.60;31.90;;;;;;5137086;28;20008;-40
2022/04/30 08:07:41;;;;;;;2.65;2.10;;;22.50;31.90;;;;;;5139424;28;20024;-39
2022/04/30 08:10:07;;;;;;;2.30;1.98;;;22.50;32.00;;;;;;5137435;28;20018;-39
2022/04/30 08:12:33;;;;;;;2.58;2.13;;;22.50;32.10;;;;;;5138202;28;20022;-40
2022/04/30 08:14:59;;;;;;;3.17;2.28;;;22.50;32.10;;;;;;5139310;28;20019;-40
2022/04/30 08:17:27;;;;;;;2.95;2.17;;;22.40;32.20;;;;;;5138911;28;20039;-41
2022/04/30 08:19:53;;;;;;;2.90;2.30;;;22.50;32.10;;;;;;5136661;28;20050;-39
2022/04/30 08:22:19;;;;;;;4.70;2.45;;;22.40;32.20;;;;;;5138614;27;20035;-40
2022/04/30 08:24:45;;;;;;;5.63;2.47;;;22.40;32.20;;;;;;5142836;27;20043;-39
2022/04/30 08:27:11;;;;;;;2.90;2.38;;;22.40;32.20;;;;;;5142732;27;20027;-39
2022/04/30 08:29:37;;;;;;;2.70;2.20;;;22.30;32.30;;;;;;5143170;27;20034;-40
2022/04/30 08:32:03;;;;;;;2.67;2.13;;;22.20;32.40;;;;;;5143471;27;20015;-40
2022/04/30 08:34:30;;;;;;;2.40;2.20;;;22.20;32.60;;;;;;5143397;27;20054;-39
2022/04/30 08:36:56;;;;;;;3.00;2.58;;;22.10;32.60;;;;;;5143249;27;20007;-39
2022/04/30 08:39:22;;;;;;;2.60;2.40;;;22.10;32.70;;;;;;5141073;27;20022;-42
2022/04/30 08:41:47;;;;;;;3.85;2.83;;;22.10;32.80;;;;;;5142290;27;20027;-40
2022/04/30 08:44:17;;;;;;;4.18;3.40;;;22.00;32.70;;;;;;5141587;27;20151;-40
2022/04/30 08:46:43;;;;;;;3.40;2.55;;;22.00;32.80;;;;;;5143624;27;20394;-39
2022/04/30 08:49:09;;;;;;;3.28;2.45;;;21.90;32.80;;;;;;5143085;27;20023;-38
2022/04/30 08:51:35;;;;;;;3.35;2.30;;;21.90;32.90;;;;;;5142818;27;20015;-40
2022/04/30 08:54:00;;;;;;;4.15;3.80;;;21.90;33.00;;;;;;5142256;27;20015;-38
2022/04/30 08:56:28;;;;;;;7.28;6.57;;;21.80;32.80;;;;;;5140765;27;20019;-39
2022/04/30 08:59:00;;;;;;;8.63;7.72;;;21.80;32.80;;;;;;5139650;27;20016;-39
2022/04/30 09:01:26;;;;;;;8.45;6.97;;;21.80;32.90;;;;;;5143035;27;20042;-40
2022/04/30 09:03:54;;;;;;;10.57;9.45;;;21.80;32.90;;;;;;5143089;27;20019;-38
2022/04/30 09:06:20;;;;;;;9.52;8.32;;;21.80;33.20;;;;;;5143613;27;20094;-39
2022/04/30 09:08:49;;;;;;;8.95;7.15;;;21.70;33.30;;;;;;5141196;27;20051;-38
2022/04/30 09:11:16;;;;;;;;;;;21.70;33.20;;;;;;5142676;27;20016;-38
2022/04/30 09:13:46;;;;;;;6.40;5.13;;;21.70;33.00;;;;;;5141575;27;19899;-38
2022/04/30 09:16:23;;;;;;;7.25;6.55;;;21.70;33.20;;;;;;5140334;27;20349;-39
2022/04/30 09:18:50;;;;;;;5.93;5.32;;;21.70;33.10;;;;;;5141123;27;20019;-40
2022/04/30 09:21:17;;;;;;;4.63;4.00;;;21.70;33.30;;;;;;5141532;27;20125;-41
2022/04/30 09:23:43;;;;;;;5.10;4.25;;;21.70;33.20;;;;;;5140682;27;20015;-39
2022/04/30 09:26:08;;;;;;;5.85;4.75;;;21.60;33.20;;;;;;5142830;27;20031;-40
2022/04/30 09:28:38;;;;;;;4.72;4.22;;;21.70;33.20;;;;;;5141371;27;20041;-38
2022/04/30 09:31:11;;;;;;;5.97;4.80;;;21.70;33.10;;;;;;5141531;27;20064;-38
2022/04/30 09:33:38;;;;;;;5.90;4.05;;;21.60;33.10;;;;;;5142314;27;20015;-39
2022/04/30 09:38:50;;;;;;;4.40;3.95;;;21.70;33.20;;;;;;5142550;27;20110;-38
2022/04/30 09:41:24;;;;;;;4.97;4.47;;;21.60;33.10;;;;;;5142147;27;20011;-38
2022/04/30 09:44:07;;;;;;;5.13;4.00;;;21.60;33.10;;;;;;5143774;27;20023;-39
2022/04/30 09:46:35;;;;;;;4.15;3.55;;;21.60;33.10;;;;;;5142402;27;20011;-38
2022/04/30 09:54:30;;;;;;;4.47;3.70;;;21.60;33.20;;;;;;5143333;27;20023;-37
2022/04/30 09:56:58;;;;;;;4.47;3.97;;;21.60;33.20;;;;;;5141080;27;20015;-37
2022/04/30 09:59:25;;;;;;;3.95;3.20;;;21.60;33.20;;;;;;5141843;27;20461;-36
2022/04/30 10:01:50;;;;;;;4.05;3.58;;;21.60;33.20;;;;;;5141308;27;20024;-36
2022/04/30 10:04:17;;;;;;;3.92;3.63;;;21.50;33.10;;;;;;5140949;27;20019;-36
2022/04/30 10:06:51;;;;;;;4.70;4.20;;;21.60;33.10;;;;;;5140773;27;20016;-37
2022/04/30 10:09:18;;;;;;;4.35;3.88;;;21.60;33.00;;;;;;5141031;27;20159;-37
2022/04/30 10:12:00;;;;;;;4.25;3.85;;;21.60;32.80;;;;;;5139965;27;20007;-37
2022/04/30 10:14:43;;;;;;;4.07;3.67;;;21.60;32.80;;;;;;5141229;27;20098;-38
2022/04/30 10:17:24;;;;;;;3.72;3.42;;;21.70;32.90;;;;;;5139616;27;19999;-37
2022/04/30 10:20:22;;;;;;;4.25;3.88;;;21.70;32.80;;;;;;5140361;27;20047;-36
2022/04/30 10:22:49;;;;;;;4.75;4.05;;;21.70;33.00;;;;;;5141370;27;20029;-37
2022/04/30 10:25:15;;;;;;;3.90;3.60;;;21.70;33.00;;;;;;5141763;27;20080;-36
2022/04/30 10:27:41;;;;;;;4.28;3.88;;;21.70;32.90;;;;;;5140158;27;20023;-37
2022/04/30 10:30:27;;;;;;;3.38;3.05;;;21.70;33.00;;;;;;5141738;27;20015;-37
2022/04/30 10:33:00;;;;;;;7.65;6.13;;;21.70;33.00;;;;;;5141926;27;20011;-38
2022/04/30 10:35:33;;;;;;;7.07;5.25;;;21.60;32.70;;;;;;5139969;27;20098;-37
2022/04/30 10:38:15;;;;;;;7.82;6.13;;;21.70;33.00;;;;;;5139086;27;20095;-36
2022/04/30 10:40:59;;;;;;;5.45;4.95;;;21.60;33.00;;;;;;5139000;27;20011;-36
2022/04/30 10:43:31;;;;;;;5.60;5.10;;;21.60;32.90;;;;;;5138239;27;20015;-37
2022/04/30 10:45:57;;;;;;;7.55;6.75;;;21.70;33.00;;;;;;5138440;27;20084;-37
2022/04/30 10:48:23;;;;;;;12.10;9.77;;;21.60;32.90;;;;;;5139662;27;20011;-37
2022/04/30 10:50:56;;;;;;;14.35;12.05;;;21.70;33.00;;;;;;5138312;27;20500;-36
2022/04/30 10:53:23;;;;;;;16.70;12.68;;;21.70;33.10;;;;;;5136594;27;20030;-36
2022/04/30 10:55:49;;;;;;;11.77;9.00;;;21.60;32.80;;;;;;5136864;27;20045;-36
2022/04/30 10:58:24;;;;;;;8.98;7.45;;;21.60;32.70;;;;;;5137458;27;20019;-37
2022/04/30 11:00:51;;;;;;;11.00;9.30;;;21.70;32.90;;;;;;5137654;27;20064;-38
2022/04/30 11:03:17;;;;;;;10.15;8.48;;;21.70;32.70;;;;;;5138870;27;20035;-37
2022/04/30 11:05:48;;;;;;;8.68;7.13;;;21.70;32.80;;;;;;5139463;27;20034;-36
2022/04/30 11:08:14;;;;;;;9.43;6.78;;;21.70;32.60;;;;;;5137671;27;20358;-37
2022/04/30 11:10:50;;;;;;;8.23;6.40;;;21.70;32.60;;;;;;5136511;27;20342;-36
2022/04/30 11:13:17;;;;;;;9.18;6.65;;;21.70;32.60;;;;;;5134430;27;20011;-36
2022/04/30 11:15:43;;;;;;;7.40;6.25;;;21.70;32.50;;;;;;5134432;27;20465;-36
2022/04/30 11:18:10;;;;;;;7.25;6.07;;;21.70;32.60;;;;;;5133798;27;20015;-37
2022/04/30 11:20:36;;;;;;;8.27;5.80;;;21.70;32.50;;;;;;5134997;27;20493;-37
2022/04/30 11:23:04;;;;;;;6.93;5.97;;;21.70;32.40;;;;;;5134140;27;20023;-35
2022/04/30 11:25:37;;;;;;;7.05;6.10;;;21.70;32.40;;;;;;5135260;27;20477;-36
2022/04/30 11:28:07;;;;;;;6.60;5.43;;;21.80;32.40;;;;;;5136799;27;20029;-36
2022/04/30 11:30:41;;;;;;;;;;;21.80;32.40;;;;;;5138223;27;20067;-36
2022/04/30 11:33:08;;;;;;;6.55;5.40;;;21.80;32.30;;;;;;5137979;27;20468;-36
2022/04/30 11:35:34;;;;;;;6.43;5.45;;;21.80;32.30;;;;;;5137415;27;20076;-36
2022/04/30 11:38:00;;;;;;;5.72;4.57;;;21.80;32.40;;;;;;5138057;27;20043;-36
2022/04/30 11:40:26;;;;;;;6.15;5.10;;;21.80;32.30;;;;;;5137246;27;20018;-38
2022/04/30 11:42:56;;;;;;;6.07;5.10;;;21.80;32.30;;;;;;5139178;27;20027;-37
2022/04/30 11:45:31;;;;;;;5.95;4.72;;;21.80;32.40;;;;;;5140484;27;20022;-37
2022/04/30 11:48:01;;;;;;;5.45;4.75;;;21.70;32.50;;;;;;5140797;28;20490;-37
2022/04/30 11:50:27;;;;;;;5.87;4.87;;;21.70;32.50;;;;;;5138528;28;20027;-37
2022/04/30 11:52:54;;;;;;;5.10;4.60;;;21.70;32.50;;;;;;5136860;28;20007;-36
2022/04/30 11:55:23;;;;;;;6.35;4.55;;;21.70;32.70;;;;;;5137097;28;20008;-36
2022/04/30 11:57:49;;;;;;;4.97;3.90;;;21.70;32.70;;;;;;5134125;27;20099;-36
2022/04/30 12:00:17;;;;;;;7.15;4.90;;;21.70;32.60;;;;;;5137191;27;20038;-36
2022/04/30 12:02:45;;;;;;;5.05;4.55;;;21.70;32.70;;;;;;5139119;27;20042;-35
2022/04/30 12:05:12;;;;;;;6.72;5.28;;;21.60;32.60;;;;;;5138553;27;20018;-35
2022/04/30 12:07:39;;;;;;;5.55;4.97;;;21.70;32.60;;;;;;5138631;27;20084;-37
2022/04/30 12:10:18;;;;;;;7.07;4.95;;;21.70;32.70;;;;;;5138274;27;20007;-38
2022/04/30 12:12:44;;;;;;;4.95;4.30;;;21.70;32.80;;;;;;5138980;27;20019;-36
2022/04/30 12:15:33;;;;;;;4.50;4.05;;;21.70;32.80;;;;;;5138560;27;20015;-36
2022/04/30 12:26:35;;;;;;;4.53;3.30;;;21.60;32.90;;;;;;5137125;27;20072;-36
2022/04/30 12:29:01;;;;;;;4.20;3.28;;;21.50;32.80;;;;;;5137921;27;20027;-35
2022/04/30 12:31:27;;;;;;;4.70;3.25;;;21.50;32.90;;;;;;5138039;27;20022;-36
2022/04/30 12:33:54;;;;;;;3.70;3.25;;;21.50;32.90;;;;;;5138345;27;20090;-36
2022/04/30 12:36:23;;;;;;;3.90;3.10;;;21.50;32.90;;;;;;5137887;27;20023;-35
2022/04/30 12:38:55;;;;;;;3.20;2.80;;;21.50;32.90;;;;;;5137653;27;20107;-36
2022/04/30 12:41:22;;;;;;;3.35;3.05;;;21.50;32.90;;;;;;5138700;27;20106;-36
2022/04/30 12:43:49;;;;;;;3.33;3.03;;;21.50;32.90;;;;;;5137969;27;20031;-36
2022/04/30 12:46:19;;;;;;;3.30;3.00;;;21.40;32.90;;;;;;5137804;27;20022;-37
2022/04/30 12:48:45;;;;;;;;;;;21.50;32.90;;;;;;5139463;27;20023;-34
2022/04/30 12:51:11;;;;;;;3.55;3.25;;;21.50;32.90;;;;;;5136258;27;20380;-36
2022/04/30 12:53:36;;;;;;;3.30;2.88;;;21.50;32.90;;;;;;5135763;27;20479;-36
2022/04/30 12:56:02;;;;;;;3.65;3.22;;;21.40;33.00;;;;;;5138248;27;20023;-34
2022/04/30 12:58:29;;;;;;;3.55;2.83;;;21.40;33.40;;;;;;5118922;27;20030;-34
2022/04/30 13:00:55;;;;;;;3.17;2.72;;;21.40;33.10;;;;;;5137549;27;20018;-37
2022/04/30 13:03:21;;;;;;;3.47;2.72;;;21.40;33.10;;;;;;5138493;27;20016;-37
2022/04/30 13:05:47;;;;;;;4.07;2.70;;;21.40;33.10;;;;;;5138453;27;20024;-34
2022/04/30 13:08:13;;;;;;;3.30;3.00;;;21.40;33.20;;;;;;5139449;27;20031;-36
2022/04/30 13:13:33;;;;;;;3.92;2.92;;;21.40;33.20;;;;;;5138685;27;20030;-35
2022/04/30 13:16:03;;;;;;;3.55;2.60;;;21.40;33.20;;;;;;5139037;27;20015;-36
2022/04/30 13:18:29;;;;;;;3.47;3.15;;;21.40;33.20;;;;;;5139374;27;20023;-35
2022/04/30 13:20:55;;;;;;;3.20;2.55;;;21.40;33.30;;;;;;5138551;27;20488;-34
2022/04/30 13:23:21;;;;;;;3.33;2.78;;;21.40;33.30;;;;;;5138522;27;20504;-37
2022/04/30 13:25:47;;;;;;;3.58;2.88;;;21.40;33.30;;;;;;5138510;27;20027;-37
2022/04/30 13:28:12;;;;;;;3.08;2.78;;;21.40;33.30;;;;;;5138612;27;20028;-37
2022/04/30 13:30:38;;;;;;;3.75;2.60;;;21.40;33.30;;;;;;5139231;27;20011;-35
2022/04/30 13:33:04;;;;;;;3.22;2.70;;;21.40;33.30;;;;;;5139438;27;20037;-37
2022/04/30 13:35:30;;;;;;;3.03;2.40;;;21.40;33.30;;;;;;5138934;27;20016;-35
2022/04/30 13:37:56;;;;;;;3.22;2.60;;;21.30;33.30;;;;;;5122011;27;20522;-35